createdAt,value
2022-08-27T00:01:48.469Z,4.33
2022-08-27T00:04:16.203Z,4.10
2022-08-27T00:06:44.024Z,3.97
2022-08-27T00:09:13.997Z,4.27
2022-08-27T00:11:41.698Z,3.90
2022-08-27T00:14:09.117Z,4.27
2022-08-27T00:16:36.631Z,4.13
2022-08-27T00:19:04.534Z,4.07
2022-08-27T00:21:33.002Z,4.23
2022-08-27T00:24:00.925Z,4.40
2022-08-27T00:26:28.903Z,4.50
2022-08-27T00:28:56.462Z,4.17
2022-08-27T00:31:27.398Z,4.20
2022-08-27T00:33:55.667Z,5.00
2022-08-27T00:36:24.092Z,4.07
2022-08-27T00:38:53.764Z,4.37
2022-08-27T00:41:22.756Z,4.63
2022-08-27T00:43:59.371Z,4.33
2022-08-27T00:46:52.991Z,4.27
2022-08-27T00:49:56.530Z,4.50
2022-08-27T00:52:47.266Z,4.30
2022-08-27T00:55:26.307Z,3.80
2022-08-27T00:58:18.467Z,4.07
2022-08-27T01:00:48.021Z,4.23
2022-08-27T01:03:15.990Z,4.00
2022-08-27T01:05:45.734Z,4.27
2022-08-27T01:08:19.126Z,4.13
2022-08-27T01:10:47.751Z,3.97
2022-08-27T01:13:22.286Z,4.27
2022-08-27T01:16:11.856Z,3.90
2022-08-27T01:18:39.446Z,4.27
2022-08-27T01:21:32.839Z,4.03
2022-08-27T01:24:38.499Z,4.03
2022-08-27T01:27:13.469Z,3.60
2022-08-27T01:29:42.443Z,3.70
2022-08-27T01:32:18.311Z,3.77
2022-08-27T01:34:46.305Z,3.30
2022-08-27T01:37:23.598Z,3.27
2022-08-27T01:39:54.380Z,4.10
2022-08-27T01:42:45.245Z,3.63
2022-08-27T01:45:29.507Z,3.77
2022-08-27T01:47:58.025Z,4.00
2022-08-27T01:50:35.913Z,3.97
2022-08-27T01:53:13.815Z,3.37
2022-08-27T01:55:46.343Z,3.67
2022-08-27T01:58:16.859Z,3.83
2022-08-27T02:00:55.998Z,3.80
2022-08-27T02:03:25.254Z,3.23
2022-08-27T02:05:53.544Z,3.60
2022-08-27T02:08:21.755Z,3.37
2022-08-27T02:10:50.766Z,3.33
2022-08-27T02:13:18.598Z,3.23
2022-08-27T02:15:45.949Z,3.30
2022-08-27T02:18:14.875Z,3.33
2022-08-27T02:20:45.410Z,3.40
2022-08-27T02:23:13.883Z,3.63
2022-08-27T02:25:41.672Z,3.50
2022-08-27T02:28:09.998Z,3.40
2022-08-27T02:30:37.968Z,3.83
2022-08-27T02:33:06.093Z,3.30
2022-08-27T02:35:38.916Z,3.60
2022-08-27T02:38:07.809Z,3.43
2022-08-27T02:40:35.959Z,3.40
2022-08-27T02:43:04.480Z,3.37
2022-08-27T02:45:32.117Z,3.33
2022-08-27T02:47:59.157Z,3.67
2022-08-27T02:50:27.707Z,3.60
2022-08-27T02:52:55.493Z,3.57
2022-08-27T02:55:23.047Z,3.77
2022-08-27T02:57:50.525Z,3.60
2022-08-27T03:00:22.557Z,3.53
2022-08-27T03:02:51.758Z,3.97
2022-08-27T03:05:20.273Z,3.77
2022-08-27T03:07:49.395Z,3.53
2022-08-27T03:10:20.297Z,4.20
2022-08-27T03:12:48.221Z,3.63
2022-08-27T03:15:18.945Z,3.67
2022-08-27T03:18:06.397Z,3.57
2022-08-27T03:20:37.333Z,3.53
2022-08-27T03:23:04.350Z,3.60
2022-08-27T03:25:32.994Z,3.57
2022-08-27T03:28:00.460Z,3.50
2022-08-27T03:30:28.013Z,3.50
2022-08-27T03:32:55.505Z,3.83
2022-08-27T03:35:23.519Z,3.67
2022-08-27T03:37:51.502Z,3.30
2022-08-27T03:40:19.626Z,3.40
2022-08-27T03:42:47.287Z,3.23
2022-08-27T03:45:16.055Z,3.10
2022-08-27T03:47:43.697Z,3.17
2022-08-27T03:50:11.602Z,3.20
2022-08-27T03:52:39.174Z,3.40
2022-08-27T03:55:08.769Z,3.17
2022-08-27T03:57:36.927Z,3.10
2022-08-27T04:00:10.343Z,3.27
2022-08-27T04:02:41.414Z,3.37
2022-08-27T04:05:11.883Z,3.40
2022-08-27T04:07:41.427Z,3.37
2022-08-27T04:10:12.047Z,3.10
2022-08-27T04:12:40.211Z,3.47
2022-08-27T04:15:09.734Z,3.80
2022-08-27T04:17:37.890Z,3.20
2022-08-27T04:20:31.837Z,3.53
2022-08-27T04:22:55.479Z,3.27
2022-08-27T04:25:22.954Z,3.30
2022-08-27T04:27:50.442Z,3.47
2022-08-27T04:30:19.222Z,3.27
2022-08-27T04:32:46.723Z,3.37
2022-08-27T04:35:14.301Z,3.20
2022-08-27T04:37:41.843Z,3.33
2022-08-27T04:40:10.592Z,3.40
2022-08-27T04:42:38.416Z,3.20
2022-08-27T04:45:06.555Z,3.40
2022-08-27T04:47:34.383Z,3.20
2022-08-27T04:50:01.874Z,3.70
2022-08-27T04:52:33.211Z,3.17
2022-08-27T04:55:00.711Z,3.40
2022-08-27T04:57:28.221Z,3.07
2022-08-27T04:59:56.840Z,3.33
2022-08-27T05:02:24.309Z,2.93
2022-08-27T05:04:51.859Z,3.17
2022-08-27T05:07:20.324Z,3.20
2022-08-27T05:09:47.744Z,3.10
2022-08-27T05:12:14.732Z,3.30
2022-08-27T05:14:42.220Z,3.27
2022-08-27T05:17:09.777Z,3.20
2022-08-27T05:19:37.180Z,3.30
2022-08-27T05:22:04.676Z,3.57
2022-08-27T05:24:32.469Z,3.20
2022-08-27T05:26:59.979Z,3.17
2022-08-27T05:29:27.083Z,3.33
2022-08-27T05:31:54.816Z,3.73
2022-08-27T05:34:26.257Z,3.30
2022-08-27T05:36:55.385Z,3.30
2022-08-27T05:39:23.196Z,3.40
2022-08-27T05:41:52.786Z,3.50
2022-08-27T05:47:07.960Z,3.60
2022-08-27T05:49:35.652Z,3.60
2022-08-27T05:52:03.308Z,3.50
2022-08-27T05:54:30.741Z,3.97
2022-08-27T05:56:58.288Z,3.90
2022-08-27T05:59:44.307Z,3.87
2022-08-27T06:02:11.819Z,3.63
2022-08-27T06:04:39.228Z,3.70
2022-08-27T06:07:09.706Z,4.00
2022-08-27T06:09:38.063Z,3.60
2022-08-27T06:12:06.801Z,3.70
2022-08-27T06:14:36.505Z,3.77
2022-08-27T06:17:04.596Z,4.40
2022-08-27T06:19:32.029Z,3.90
2022-08-27T06:22:09.800Z,3.60
2022-08-27T06:24:40.503Z,3.37
2022-08-27T06:27:12.752Z,3.90
2022-08-27T06:29:41.429Z,3.40
2022-08-27T06:32:09.536Z,3.80
2022-08-27T06:34:38.069Z,3.80
2022-08-27T06:37:06.106Z,3.23
2022-08-27T06:39:36.027Z,3.07
2022-08-27T06:42:06.298Z,3.07
2022-08-27T06:44:34.399Z,2.77
2022-08-27T06:47:03.650Z,2.70
2022-08-27T06:49:33.364Z,2.63
2022-08-27T06:52:01.017Z,2.80
2022-08-27T06:54:28.541Z,3.27
2022-08-27T06:57:00.205Z,3.13
2022-08-27T06:59:27.791Z,3.10
2022-08-27T07:01:55.343Z,3.00
2022-08-27T07:04:32.147Z,2.67
2022-08-27T07:07:04.370Z,2.30
2022-08-27T07:09:33.769Z,2.23
2022-08-27T07:12:02.273Z,2.20
2022-08-27T07:14:34.200Z,2.20
2022-08-27T07:17:04.815Z,2.30
2022-08-27T07:19:33.570Z,2.30
2022-08-27T07:22:00.666Z,2.50
2022-08-27T07:24:28.194Z,2.47
2022-08-27T07:26:55.687Z,2.23
2022-08-27T07:29:23.122Z,2.03
2022-08-27T07:31:50.167Z,2.10
2022-08-27T07:34:17.594Z,2.13
2022-08-27T07:36:44.627Z,2.23
2022-08-27T07:39:13.862Z,2.60
2022-08-27T07:41:59.743Z,2.77
2022-08-27T07:44:28.094Z,2.87
2022-08-27T07:47:02.284Z,3.20
2022-08-27T07:49:31.389Z,3.77
2022-08-27T07:51:58.913Z,4.30
2022-08-27T07:54:26.447Z,4.03
2022-08-27T07:56:56.013Z,3.87
2022-08-27T07:59:27.056Z,4.27
2022-08-27T08:03:43.411Z,5.60
2022-08-27T08:06:15.851Z,5.77
2022-08-27T08:08:45.011Z,5.57
2022-08-27T08:11:18.436Z,5.30
2022-08-27T08:13:50.171Z,5.90
2022-08-27T08:16:18.375Z,5.30
2022-08-27T08:18:45.943Z,6.03
2022-08-27T08:21:14.928Z,5.60
2022-08-27T08:23:45.418Z,6.23
2022-08-27T08:26:17.860Z,6.97
2022-08-27T08:28:48.448Z,7.40
2022-08-27T08:31:16.608Z,5.30
2022-08-27T08:33:44.183Z,5.43
2022-08-27T08:36:16.123Z,5.30
2022-08-27T08:38:45.394Z,5.60
2022-08-27T08:41:43.776Z,4.50
2022-08-27T08:44:44.340Z,4.47
2022-08-27T08:47:28.296Z,3.33
2022-08-27T08:50:19.721Z,3.13
2022-08-27T08:53:02.164Z,2.87
2022-08-27T08:56:07.906Z,2.80
2022-08-27T08:58:55.780Z,1.97
2022-08-27T09:01:24.583Z,2.00
2022-08-27T09:04:05.081Z,2.10
2022-08-27T09:07:04.681Z,1.83
2022-08-27T09:10:10.236Z,2.10
2022-08-27T09:12:40.864Z,2.30
2022-08-27T09:15:26.034Z,2.30
2022-08-27T09:18:04.824Z,2.33
2022-08-27T09:20:34.285Z,1.87
2022-08-27T09:23:15.028Z,1.90
2022-08-27T09:25:43.568Z,2.20
2022-08-27T09:28:40.620Z,2.10
2022-08-27T09:31:13.329Z,2.20
2022-08-27T09:33:55.913Z,2.50
2022-08-27T09:36:25.370Z,2.20
2022-08-27T09:39:04.182Z,2.80
2022-08-27T09:41:42.161Z,2.60
2022-08-27T09:44:13.907Z,3.30
2022-08-27T09:46:57.914Z,3.07
2022-08-27T09:49:26.845Z,3.33
2022-08-27T09:51:56.037Z,3.70
2022-08-27T09:54:46.512Z,3.60
2022-08-27T09:57:35.294Z,3.07
2022-08-27T10:00:08.969Z,3.70
2022-08-27T10:02:52.901Z,3.40
2022-08-27T10:05:37.290Z,3.30
2022-08-27T10:08:28.322Z,3.00
2022-08-27T10:11:27.954Z,2.97
2022-08-27T10:14:19.334Z,2.97
2022-08-27T10:17:28.833Z,2.80
2022-08-27T10:20:25.769Z,2.30
2022-08-27T10:23:41.754Z,2.30
2022-08-27T10:26:33.182Z,2.60
2022-08-27T10:29:45.618Z,2.37
2022-08-27T10:32:55.048Z,2.20
2022-08-27T10:35:27.097Z,2.50
2022-08-27T10:38:23.001Z,2.20
2022-08-27T10:41:17.402Z,2.10
2022-08-27T10:44:10.891Z,2.80
2022-08-27T10:47:10.670Z,3.53
2022-08-27T10:49:54.614Z,3.77
2022-08-27T10:52:29.286Z,4.53
2022-08-27T10:55:24.154Z,8.00
2022-08-27T10:58:19.152Z,10.23
2022-08-27T11:01:37.403Z,3.00
2022-08-27T11:04:26.702Z,1.80
2022-08-27T11:07:04.866Z,2.63
2022-08-27T11:09:51.637Z,3.20
2022-08-27T11:12:44.396Z,3.70
2022-08-27T11:15:31.046Z,3.80
2022-08-27T11:18:05.845Z,3.20
2022-08-27T11:20:56.007Z,2.77
2022-08-27T11:23:43.151Z,2.40
2022-08-27T11:26:12.338Z,2.43
2022-08-27T11:28:52.565Z,2.47
2022-08-27T11:31:36.188Z,2.90
2022-08-27T11:34:10.150Z,4.03
2022-08-27T11:36:56.006Z,4.27
2022-08-27T11:39:36.855Z,5.67
2022-08-27T11:42:41.964Z,3.90
2022-08-27T11:45:30.711Z,1.67
2022-08-27T11:48:01.667Z,1.70
2022-08-27T11:50:31.236Z,2.40
2022-08-27T11:53:02.140Z,2.13
2022-08-27T11:55:31.876Z,2.30
2022-08-27T11:58:30.366Z,1.50
2022-08-27T12:01:04.706Z,2.70
2022-08-27T12:03:35.416Z,2.80
2022-08-27T12:06:18.719Z,4.27
2022-08-27T12:08:46.827Z,4.23
2022-08-27T12:11:42.408Z,4.83
2022-08-27T12:14:39.503Z,4.30
2022-08-27T12:17:30.333Z,2.40
2022-08-27T12:20:32.681Z,1.20
2022-08-27T12:23:39.773Z,1.40
2022-08-27T12:26:25.501Z,1.50
2022-08-27T12:29:36.418Z,1.70
2022-08-27T12:32:37.072Z,3.80
2022-08-27T12:35:31.165Z,5.33
2022-08-27T12:38:14.172Z,4.33
2022-08-27T12:40:57.597Z,1.30
2022-08-27T12:43:29.061Z,1.70
2022-08-27T12:46:11.258Z,2.20
2022-08-27T12:48:44.617Z,2.00
2022-08-27T12:51:25.789Z,1.27
2022-08-27T12:54:30.164Z,1.60
2022-08-27T12:57:37.163Z,2.63
2022-08-27T13:00:26.608Z,2.37
2022-08-27T13:03:16.774Z,1.70
2022-08-27T13:05:50.293Z,1.87
2022-08-27T13:08:34.283Z,1.77
2022-08-27T13:11:21.789Z,1.70
2022-08-27T13:13:51.201Z,1.77
2022-08-27T13:16:20.902Z,1.77
2022-08-27T13:18:50.407Z,1.90
2022-08-27T13:21:28.269Z,1.80
2022-08-27T13:24:02.950Z,2.10
2022-08-27T13:26:37.277Z,2.00
2022-08-27T13:29:07.427Z,2.17
2022-08-27T13:31:36.044Z,1.87
2022-08-27T13:34:06.465Z,2.17
2022-08-27T13:36:37.889Z,1.67
2022-08-27T13:39:07.417Z,1.97
2022-08-27T13:41:37.930Z,1.87
2022-08-27T13:44:19.016Z,1.60
2022-08-27T13:47:03.882Z,4.00
2022-08-27T13:49:39.752Z,4.57
2022-08-27T13:52:29.439Z,4.20
2022-08-27T13:55:09.810Z,3.27
2022-08-27T13:57:50.367Z,2.50
2022-08-27T14:00:28.770Z,3.03
2022-08-27T14:02:58.587Z,4.97
2022-08-27T14:05:29.374Z,11.77
2022-08-27T14:08:23.271Z,13.43
2022-08-27T14:11:09.314Z,15.87
2022-08-27T14:13:49.123Z,15.40
2022-08-27T14:16:23.497Z,13.00
2022-08-27T14:19:05.371Z,11.73
2022-08-27T14:21:36.183Z,9.20
2022-08-27T14:24:04.375Z,11.27
2022-08-27T14:26:32.651Z,14.10
2022-08-27T14:29:00.547Z,14.90
2022-08-27T14:31:28.466Z,11.57
2022-08-27T14:33:56.528Z,9.97
2022-08-27T14:36:27.679Z,7.07
2022-08-27T14:38:55.480Z,5.77
2022-08-27T14:41:23.124Z,3.60
2022-08-27T14:43:50.863Z,2.90
2022-08-27T14:46:27.984Z,2.90
2022-08-27T14:48:58.471Z,2.53
2022-08-27T14:51:30.059Z,1.80
2022-08-27T14:53:58.836Z,2.00
2022-08-27T14:56:27.072Z,1.80
2022-08-27T14:58:54.672Z,1.83
2022-08-27T15:01:26.676Z,2.03
2022-08-27T15:03:55.756Z,2.30
2022-08-27T15:06:25.133Z,2.40
2022-08-27T15:08:54.699Z,2.30
2022-08-27T15:11:32.427Z,2.13
2022-08-27T15:14:01.691Z,2.40
2022-08-27T15:16:39.940Z,2.20
2022-08-27T15:19:10.969Z,2.27
2022-08-27T15:21:41.184Z,3.00
2022-08-27T15:24:26.197Z,3.57
2022-08-27T15:26:57.829Z,3.47
2022-08-27T15:29:26.201Z,3.40
2022-08-27T15:31:54.160Z,7.60
2022-08-27T15:34:21.848Z,11.80
2022-08-27T15:36:50.320Z,8.60
2022-08-27T15:39:17.892Z,3.80
2022-08-27T15:42:03.340Z,2.53
2022-08-27T15:44:33.149Z,2.37
2022-08-27T15:47:00.588Z,2.50
2022-08-27T15:49:28.136Z,3.53
2022-08-27T15:51:55.916Z,3.97
2022-08-27T15:54:27.654Z,3.77
2022-08-27T15:56:54.657Z,3.57
2022-08-27T15:59:22.115Z,3.00
2022-08-27T16:01:49.844Z,2.73
2022-08-27T16:04:17.729Z,2.87
2022-08-27T16:06:45.245Z,2.50
2022-08-27T16:09:12.661Z,2.70
2022-08-27T16:11:40.725Z,2.70
2022-08-27T16:14:10.589Z,2.93
2022-08-27T16:16:40.138Z,2.67
2022-08-27T16:19:08.493Z,2.67
2022-08-27T16:21:36.597Z,2.50
2022-08-27T16:24:08.965Z,2.50
2022-08-27T16:26:38.799Z,2.50
2022-08-27T16:29:07.305Z,2.40
2022-08-27T16:31:36.883Z,2.30
2022-08-27T16:34:14.865Z,2.40
2022-08-27T16:36:42.393Z,2.33
2022-08-27T16:39:10.110Z,2.60
2022-08-27T16:41:38.110Z,2.77
2022-08-27T16:44:06.741Z,2.63
2022-08-27T16:46:35.844Z,2.80
2022-08-27T16:49:23.514Z,2.77
2022-08-27T16:51:52.150Z,2.87
2022-08-27T16:54:19.647Z,2.87
2022-08-27T16:56:47.194Z,2.80
2022-08-27T16:59:15.711Z,2.50
2022-08-27T17:01:44.379Z,2.60
2022-08-27T17:04:19.337Z,2.57
2022-08-27T17:06:51.515Z,2.47
2022-08-27T17:09:19.215Z,2.60
2022-08-27T17:11:57.496Z,2.53
2022-08-27T17:14:26.655Z,2.70
2022-08-27T17:16:53.776Z,2.57
2022-08-27T17:19:24.246Z,2.60
2022-08-27T17:21:53.795Z,2.63
2022-08-27T17:24:21.256Z,2.80
2022-08-27T17:26:48.371Z,2.80
2022-08-27T17:29:15.895Z,2.90
2022-08-27T17:31:43.781Z,2.80
2022-08-27T17:34:17.765Z,3.33
2022-08-27T17:36:46.093Z,3.30
2022-08-27T17:39:14.523Z,3.27
2022-08-27T17:41:46.791Z,3.60
2022-08-27T17:44:25.576Z,4.23
2022-08-27T17:46:56.923Z,4.20
2022-08-27T17:49:25.569Z,4.73
2022-08-27T17:52:00.229Z,5.10
2022-08-27T17:54:41.171Z,5.47
2022-08-27T17:57:22.411Z,5.87
2022-08-27T17:59:50.820Z,5.77
2022-08-27T18:02:47.283Z,5.97
2022-08-27T18:05:18.149Z,5.13
2022-08-27T18:07:47.103Z,4.87
2022-08-27T18:10:22.359Z,4.50
2022-08-27T18:12:52.120Z,4.40
2022-08-27T18:15:32.168Z,3.57
2022-08-27T18:18:00.308Z,3.27
2022-08-27T18:20:31.552Z,2.93
2022-08-27T18:22:59.840Z,2.83
2022-08-27T18:25:35.266Z,2.73
2022-08-27T18:28:07.953Z,2.80
2022-08-27T18:30:38.570Z,2.80
2022-08-27T18:33:07.928Z,3.00
2022-08-27T18:35:36.424Z,3.10
2022-08-27T18:38:04.709Z,3.07
2022-08-27T18:40:39.810Z,3.23
2022-08-27T18:43:07.523Z,3.40
2022-08-27T18:45:37.477Z,3.40
2022-08-27T18:48:15.796Z,3.60
2022-08-27T18:50:57.041Z,3.90
2022-08-27T18:53:28.316Z,3.73
2022-08-27T18:55:56.360Z,3.93
2022-08-27T18:58:23.905Z,3.70
2022-08-27T19:00:57.107Z,4.13
2022-08-27T19:03:30.408Z,3.63
2022-08-27T19:05:58.224Z,3.57
2022-08-27T19:08:28.756Z,3.33
2022-08-27T19:10:56.328Z,3.50
2022-08-27T19:13:24.168Z,3.63
2022-08-27T19:16:09.324Z,3.60
2022-08-27T19:18:38.365Z,3.70
2022-08-27T19:21:07.297Z,3.33
2022-08-27T19:23:37.005Z,3.73
2022-08-27T19:26:04.725Z,3.43
2022-08-27T19:28:44.917Z,3.27
2022-08-27T19:31:14.359Z,3.37
2022-08-27T19:33:43.197Z,3.07
2022-08-27T19:36:16.146Z,3.27
2022-08-27T19:38:45.528Z,3.30
2022-08-27T19:41:14.036Z,3.13
2022-08-27T19:43:44.740Z,2.80
2022-08-27T19:46:17.408Z,2.97
2022-08-27T19:48:44.901Z,2.90
2022-08-27T19:51:12.921Z,3.00
2022-08-27T19:53:40.581Z,2.90
2022-08-27T19:56:13.605Z,2.70
2022-08-27T19:58:42.537Z,2.60
2022-08-27T20:01:11.454Z,2.70
2022-08-27T20:03:39.301Z,2.60
2022-08-27T20:06:06.741Z,2.70
2022-08-27T20:08:34.273Z,2.50
2022-08-27T20:11:01.755Z,2.53
2022-08-27T20:13:33.028Z,2.53
2022-08-27T20:16:01.426Z,2.67
2022-08-27T20:18:28.783Z,2.63
2022-08-27T20:20:56.875Z,2.60
2022-08-27T20:23:25.114Z,2.60
2022-08-27T20:25:57.834Z,2.63
2022-08-27T20:28:43.582Z,2.60
2022-08-27T20:31:11.417Z,2.53
2022-08-27T20:33:39.098Z,2.60
2022-08-27T20:36:08.463Z,2.57
2022-08-27T20:38:35.728Z,2.50
2022-08-27T20:41:03.418Z,2.57
2022-08-27T20:43:31.034Z,2.50
2022-08-27T20:45:59.455Z,2.57
2022-08-27T20:48:27.034Z,2.50
2022-08-27T20:50:56.177Z,2.60
2022-08-27T20:53:23.750Z,2.60
2022-08-27T20:55:51.316Z,2.57
2022-08-27T20:58:37.131Z,2.63
2022-08-27T21:01:04.863Z,2.50
2022-08-27T21:03:32.451Z,2.70
2022-08-27T21:05:59.874Z,2.70
2022-08-27T21:08:27.550Z,2.70
2022-08-27T21:10:57.258Z,2.63
2022-08-27T21:13:27.319Z,2.70
2022-08-27T21:15:56.432Z,2.80
2022-08-27T21:18:29.722Z,2.67
2022-08-27T21:21:02.275Z,2.70
2022-08-27T21:23:32.523Z,2.73
2022-08-27T21:26:19.512Z,2.70
2022-08-27T21:28:47.018Z,2.73
2022-08-27T21:31:14.533Z,2.70
2022-08-27T21:33:41.986Z,2.60
2022-08-27T21:36:12.215Z,2.70
2022-08-27T21:38:40.431Z,2.60
2022-08-27T21:41:08.500Z,2.63
2022-08-27T21:43:36.482Z,2.70
2022-08-27T21:46:04.360Z,2.70
2022-08-27T21:48:31.869Z,2.70
2022-08-27T21:50:59.483Z,2.63
2022-08-27T21:53:27.088Z,2.80
2022-08-27T21:55:54.947Z,2.60
2022-08-27T21:58:26.384Z,2.70
2022-08-27T22:00:54.558Z,2.60
2022-08-27T22:03:24.059Z,2.70
2022-08-27T22:05:52.361Z,2.67
2022-08-27T22:08:22.359Z,2.70
2022-08-27T22:10:54.471Z,2.67
2022-08-27T22:13:22.583Z,2.73
2022-08-27T22:15:50.166Z,2.70
2022-08-27T22:18:18.771Z,2.63
2022-08-27T22:20:50.167Z,2.60
2022-08-27T22:23:17.810Z,2.73
2022-08-27T22:25:45.896Z,2.70
2022-08-27T22:28:16.204Z,2.60
2022-08-27T22:30:45.008Z,2.70
2022-08-27T22:33:13.912Z,2.63
2022-08-27T22:35:41.540Z,2.70
2022-08-27T22:38:09.290Z,2.70
2022-08-27T22:40:37.298Z,2.60
2022-08-27T22:43:05.709Z,2.67
2022-08-27T22:45:34.404Z,2.67
2022-08-27T22:48:02.061Z,2.70
2022-08-27T22:50:29.592Z,2.60
2022-08-27T22:52:56.988Z,2.63
2022-08-27T22:55:25.160Z,2.80
2022-08-27T22:57:55.253Z,2.60
2022-08-27T23:00:31.505Z,2.70
2022-08-27T23:02:59.647Z,2.70
2022-08-27T23:05:28.454Z,2.60
2022-08-27T23:08:11.322Z,2.80
2022-08-27T23:10:39.705Z,2.63
2022-08-27T23:13:08.589Z,2.67
2022-08-27T23:15:36.584Z,2.80
2022-08-27T23:18:04.368Z,2.73
2022-08-27T23:20:32.165Z,2.70
2022-08-27T23:22:59.633Z,2.77
2022-08-27T23:25:46.530Z,2.70
2022-08-27T23:28:15.510Z,2.70
2022-08-27T23:30:44.759Z,2.70
2022-08-27T23:33:13.581Z,2.80
2022-08-27T23:35:44.379Z,2.80
2022-08-27T23:38:12.315Z,2.63
2022-08-27T23:40:40.755Z,2.90
2022-08-27T23:43:08.346Z,2.70
2022-08-27T23:45:40.168Z,2.80
2022-08-27T23:48:08.409Z,2.70
2022-08-27T23:50:36.304Z,2.70
2022-08-27T23:53:05.869Z,2.73
2022-08-27T23:55:33.739Z,2.80
2022-08-27T23:58:02.619Z,2.70
